createdAt,value
2017-09-04T00:00:02.517Z,44.7
2017-09-04T00:01:03.336Z,44.5
2017-09-04T00:02:03.270Z,44.5
2017-09-04T00:03:02.868Z,44.5
2017-09-04T00:04:03.261Z,44.3
2017-09-04T00:05:02.467Z,44.6
2017-09-04T00:06:02.667Z,44.5
2017-09-04T00:07:03.641Z,44.5
2017-09-04T00:08:02.941Z,44.4
2017-09-04T00:09:02.967Z,44.6
2017-09-04T00:10:02.740Z,44.5
2017-09-04T00:11:03.077Z,44.4
2017-09-04T00:12:02.579Z,44.6
2017-09-04T00:13:03.212Z,44.5
2017-09-04T00:14:02.831Z,44.4
2017-09-04T00:15:03.078Z,44.3
2017-09-04T00:16:02.910Z,44.2
2017-09-04T00:17:02.957Z,44.7
2017-09-04T00:18:03.409Z,44.5
2017-09-04T00:19:03.330Z,44.4
2017-09-04T00:20:02.799Z,44.4
2017-09-04T00:21:03.253Z,44.4
2017-09-04T00:22:03.274Z,44.5
2017-09-04T00:23:02.592Z,44.5
2017-09-04T00:24:03.485Z,44.4
2017-09-04T00:25:03.300Z,44.3
2017-09-04T00:26:02.774Z,44.6
2017-09-04T00:27:02.779Z,44.4
2017-09-04T00:28:03.177Z,44.4
2017-09-04T00:29:02.597Z,44.4
2017-09-04T00:30:03.427Z,44.4
2017-09-04T00:31:03.433Z,44.5
2017-09-04T00:32:03.203Z,44.3
2017-09-04T00:33:03.206Z,44.3
2017-09-04T00:34:02.615Z,44.2
2017-09-04T00:35:03.254Z,44.3
2017-09-04T00:36:02.677Z,44.4
2017-09-04T00:37:02.887Z,44.2
2017-09-04T00:38:02.503Z,44.1
2017-09-04T00:39:03.324Z,44.2
2017-09-04T00:40:02.915Z,44.2
2017-09-04T00:41:02.710Z,44
2017-09-04T00:42:03.142Z,44.3
2017-09-04T00:43:02.738Z,44.1
2017-09-04T00:44:03.328Z,44.3
2017-09-04T00:45:02.544Z,44.4
2017-09-04T00:46:03.112Z,44.1
2017-09-04T00:47:02.550Z,44.2
2017-09-04T00:48:02.944Z,44
2017-09-04T00:49:02.538Z,44
2017-09-04T00:50:03.355Z,44.2
2017-09-04T00:51:03.536Z,44.1
2017-09-04T00:52:03.393Z,44.2
2017-09-04T00:53:02.773Z,43.9
2017-09-04T00:54:03.188Z,44.2
2017-09-04T00:55:03.180Z,44.1
2017-09-04T00:56:02.520Z,44
2017-09-04T00:57:03.143Z,43.9
2017-09-04T00:58:02.525Z,44.1
2017-09-04T00:59:03.123Z,44.2
2017-09-04T01:00:02.514Z,44.1
2017-09-04T01:01:03.199Z,44.1
2017-09-04T01:02:02.807Z,43.8
2017-09-04T01:03:02.770Z,44.2
2017-09-04T01:04:03.408Z,43.8
2017-09-04T01:05:02.825Z,43.9
2017-09-04T01:06:02.597Z,43.8
2017-09-04T01:07:03.685Z,43.9
2017-09-04T01:08:03.208Z,44
2017-09-04T01:09:03.197Z,43.9
2017-09-04T01:10:02.626Z,43.8
2017-09-04T01:11:03.233Z,44.2
2017-09-04T01:12:03.047Z,43.9
2017-09-04T01:13:02.264Z,43.8
2017-09-04T01:14:03.264Z,43.8
2017-09-04T01:15:02.651Z,43.9
2017-09-04T01:16:03.267Z,43.8
2017-09-04T01:17:02.851Z,44.2
2017-09-04T01:18:02.874Z,43.9
2017-09-04T01:19:02.659Z,43.9
2017-09-04T01:20:03.093Z,43.8
2017-09-04T01:21:03.190Z,43.7
2017-09-04T01:22:03.009Z,43.8
2017-09-04T01:23:03.664Z,44
2017-09-04T01:24:03.485Z,43.7
2017-09-04T01:25:03.822Z,43.8
2017-09-04T01:26:02.625Z,43.9
2017-09-04T01:27:02.338Z,43.9
2017-09-04T01:28:02.973Z,43.9
2017-09-04T01:29:03.905Z,43.9
2017-09-04T01:30:03.327Z,43.9
2017-09-04T01:31:02.878Z,43.8
2017-09-04T01:32:03.118Z,43.9
2017-09-04T01:33:03.605Z,43.9
2017-09-04T01:34:03.222Z,43.8
2017-09-04T01:35:02.680Z,44
2017-09-04T01:36:03.110Z,44
2017-09-04T01:37:02.941Z,43.9
2017-09-04T01:38:03.480Z,44
2017-09-04T01:39:02.896Z,44.1
2017-09-04T01:40:02.492Z,43.9
2017-09-04T01:41:02.945Z,44
2017-09-04T01:42:02.949Z,44.1
2017-09-04T01:43:02.843Z,44.1
2017-09-04T01:44:03.197Z,44.1
2017-09-04T01:45:03.296Z,44.2
2017-09-04T01:46:03.534Z,44.2
2017-09-04T01:47:02.961Z,44.1
2017-09-04T01:48:03.799Z,44.2
2017-09-04T01:49:03.642Z,44.2
2017-09-04T01:50:03.754Z,44.1
2017-09-04T01:51:02.407Z,44.1
2017-09-04T01:52:03.203Z,44.1
2017-09-04T01:53:02.868Z,44.3
2017-09-04T01:54:03.113Z,44.3
2017-09-04T01:55:02.531Z,44.2
2017-09-04T01:56:03.562Z,44.3
2017-09-04T01:57:03.358Z,44.4
2017-09-04T01:58:02.965Z,44.3
2017-09-04T01:59:02.626Z,44
2017-09-04T02:00:02.896Z,44.3
2017-09-04T02:01:03.108Z,44.2
2017-09-04T02:02:02.832Z,44.3
2017-09-04T02:03:03.501Z,44.2
2017-09-04T02:04:03.069Z,44.2
2017-09-04T02:05:02.693Z,44.1
2017-09-04T02:06:02.704Z,44.2
2017-09-04T02:07:03.339Z,44.1
2017-09-04T02:08:02.723Z,44.2
2017-09-04T02:09:03.337Z,44.3
2017-09-04T02:10:03.737Z,44.4
2017-09-04T02:11:03.144Z,44.3
2017-09-04T02:12:02.950Z,44
2017-09-04T02:13:03.054Z,44
2017-09-04T02:14:03.768Z,44.1
2017-09-04T02:15:02.998Z,44
2017-09-04T02:16:03.984Z,44.2
2017-09-04T02:17:02.983Z,44.3
2017-09-04T02:18:02.614Z,44.1
2017-09-04T02:19:03.221Z,43.9
2017-09-04T02:20:03.039Z,43.9
2017-09-04T02:21:02.634Z,44.2
2017-09-04T02:22:03.102Z,44
2017-09-04T02:23:03.194Z,44
2017-09-04T02:24:02.604Z,44.1
2017-09-04T02:25:03.234Z,43.9
2017-09-04T02:26:02.635Z,44
2017-09-04T02:27:03.621Z,44.2
2017-09-04T02:28:03.523Z,44
2017-09-04T02:29:02.953Z,44
2017-09-04T02:30:02.777Z,44
2017-09-04T02:31:03.743Z,44.1
2017-09-04T02:32:03.500Z,44.1
2017-09-04T02:33:03.171Z,43.9
2017-09-04T02:34:03.045Z,43.9
2017-09-04T02:35:02.450Z,43.9
2017-09-04T02:36:02.656Z,43.8
2017-09-04T02:37:03.487Z,44.1
2017-09-04T02:38:03.092Z,43.9
2017-09-04T02:39:04.007Z,44
2017-09-04T02:40:03.602Z,43.9
2017-09-04T02:41:03.442Z,43.9
2017-09-04T02:42:02.699Z,43.8
2017-09-04T02:43:03.530Z,43.8
2017-09-04T02:44:03.564Z,43.8
2017-09-04T02:45:03.430Z,44.2
2017-09-04T02:46:02.656Z,43.9
2017-09-04T02:47:03.106Z,43.8
2017-09-04T02:48:02.898Z,43.8
2017-09-04T02:49:03.557Z,43.9
2017-09-04T02:50:03.049Z,43.9
2017-09-04T02:51:03.289Z,44
2017-09-04T02:52:02.905Z,43.7
2017-09-04T02:53:03.736Z,44
2017-09-04T02:54:03.197Z,43.8
2017-09-04T02:55:02.822Z,44
2017-09-04T02:56:02.594Z,44
2017-09-04T02:57:03.197Z,43.8
2017-09-04T02:58:03.395Z,44
2017-09-04T02:59:03.019Z,43.8
2017-09-04T03:00:03.196Z,43.9
2017-09-04T03:01:02.888Z,44
2017-09-04T03:02:02.667Z,43.9
2017-09-04T03:03:02.450Z,43.6
2017-09-04T03:04:03.053Z,43.8
2017-09-04T03:05:02.850Z,43.7
2017-09-04T03:06:02.652Z,43.6
2017-09-04T03:07:03.116Z,43.7
2017-09-04T03:08:02.753Z,43.6
2017-09-04T03:09:03.004Z,43.8
2017-09-04T03:10:02.614Z,43.8
2017-09-04T03:11:02.467Z,43.9
2017-09-04T03:12:02.961Z,43.9
2017-09-04T03:13:03.598Z,43.9
2017-09-04T03:14:03.222Z,43.9
2017-09-04T03:15:02.463Z,43.9
2017-09-04T03:16:02.867Z,44
2017-09-04T03:17:02.961Z,44
2017-09-04T03:18:03.004Z,43.9
2017-09-04T03:19:02.653Z,44
2017-09-04T03:20:02.702Z,43.9
2017-09-04T03:21:02.842Z,44
2017-09-04T03:22:02.602Z,44.1
2017-09-04T03:23:02.699Z,44.1
2017-09-04T03:24:02.930Z,44
2017-09-04T03:25:02.183Z,44.1
2017-09-04T03:26:03.241Z,44.1
2017-09-04T03:27:03.105Z,44
2017-09-04T03:28:02.821Z,43.9
2017-09-04T03:29:02.516Z,43.8
2017-09-04T03:30:02.712Z,43.8
2017-09-04T03:31:03.069Z,43.7
2017-09-04T03:32:02.271Z,44
2017-09-04T03:33:03.051Z,43.7
2017-09-04T03:34:02.895Z,43.6
2017-09-04T03:35:02.951Z,43.7
2017-09-04T03:36:02.380Z,43.8
2017-09-04T03:37:03.051Z,43.9
2017-09-04T03:38:02.495Z,43.8
2017-09-04T03:39:02.925Z,43.8
2017-09-04T03:40:03.146Z,43.6
2017-09-04T03:41:03.005Z,43.6
2017-09-04T03:42:03.019Z,43.7
2017-09-04T03:43:02.431Z,43.7
2017-09-04T03:44:03.033Z,43.8
2017-09-04T03:45:07.592Z,43.9
2017-09-04T03:46:03.288Z,43.7
2017-09-04T03:47:03.091Z,43.9
2017-09-04T03:48:02.704Z,44
2017-09-04T03:49:03.423Z,43.9
2017-09-04T03:50:03.268Z,44
2017-09-04T03:51:02.873Z,43.8
2017-09-04T03:52:03.123Z,43.9
2017-09-04T03:53:02.931Z,43.8
2017-09-04T03:54:02.556Z,43.8
2017-09-04T03:55:03.196Z,43.7
2017-09-04T03:56:02.807Z,43.6
2017-09-04T03:57:02.816Z,43.6
2017-09-04T03:58:01.999Z,43.7
2017-09-04T03:59:02.215Z,43.6
2017-09-04T04:00:02.799Z,43.7
2017-09-04T04:01:03.120Z,43.7
2017-09-04T04:02:03.300Z,43.8
2017-09-04T04:03:03.151Z,43.7
2017-09-04T04:04:03.938Z,43.8
2017-09-04T04:05:03.161Z,43.9
2017-09-04T04:06:03.690Z,43.8
2017-09-04T04:07:03.701Z,43.9
2017-09-04T04:08:03.299Z,43.7
2017-09-04T04:09:03.252Z,43.8
2017-09-04T04:10:04.057Z,43.8
2017-09-04T04:11:03.170Z,43.7
2017-09-04T04:12:04.182Z,43.8
2017-09-04T04:13:03.369Z,43.8
2017-09-04T04:14:03.139Z,43.8
2017-09-04T04:15:02.733Z,44
2017-09-04T04:16:02.939Z,44
2017-09-04T04:17:03.339Z,44
2017-09-04T04:18:03.772Z,43.9
2017-09-04T04:19:03.222Z,44
2017-09-04T04:20:03.223Z,43.7
2017-09-04T04:21:03.022Z,43.8
2017-09-04T04:22:03.603Z,43.9
2017-09-04T04:23:03.453Z,43.8
2017-09-04T04:24:03.301Z,43.8
2017-09-04T04:25:02.730Z,43.9
2017-09-04T04:26:03.838Z,43.8
2017-09-04T04:27:03.071Z,43.7
2017-09-04T04:28:03.521Z,43.6
2017-09-04T04:29:03.111Z,43.6
2017-09-04T04:30:03.123Z,43.9
2017-09-04T04:31:03.102Z,43.8
2017-09-04T04:32:03.541Z,43.8
2017-09-04T04:33:02.762Z,43.9
2017-09-04T04:34:03.165Z,43.8
2017-09-04T04:35:02.551Z,43.7
2017-09-04T04:36:03.144Z,43.8
2017-09-04T04:37:03.357Z,43.7
2017-09-04T04:38:03.206Z,43.8
2017-09-04T04:39:03.396Z,43.8
2017-09-04T04:40:02.989Z,43.6
2017-09-04T04:41:03.411Z,43.7
2017-09-04T04:42:02.882Z,43.7
2017-09-04T04:43:03.802Z,43.8
2017-09-04T04:44:03.933Z,43.8
2017-09-04T04:45:03.438Z,43.8
2017-09-04T04:46:03.237Z,43.7
2017-09-04T04:47:03.291Z,43.6
2017-09-04T04:48:04.376Z,43.8
2017-09-04T04:49:03.397Z,43.7
2017-09-04T04:50:03.022Z,43.8
2017-09-04T04:51:03.393Z,43.5
2017-09-04T04:52:03.807Z,43.6
2017-09-04T04:53:03.798Z,43.5
2017-09-04T04:54:03.001Z,43.8
2017-09-04T04:55:03.385Z,43.5
2017-09-04T04:56:03.589Z,43.5
2017-09-04T04:57:03.768Z,43.8
2017-09-04T04:58:02.834Z,43.7
2017-09-04T04:59:03.416Z,43.7
2017-09-04T05:00:02.994Z,43.7
2017-09-04T05:01:03.224Z,43.5
2017-09-04T05:02:03.652Z,43.6
2017-09-04T05:03:02.628Z,43.9
2017-09-04T05:04:02.833Z,43.5
2017-09-04T05:05:03.952Z,43.7
2017-09-04T05:06:03.350Z,43.7
2017-09-04T05:07:02.954Z,43.6
2017-09-04T05:08:03.762Z,43.7
2017-09-04T05:09:03.160Z,43.7
2017-09-04T05:10:03.569Z,43.7
2017-09-04T05:11:02.799Z,43.8
2017-09-04T05:12:03.583Z,43.8
2017-09-04T05:13:03.151Z,43.8
2017-09-04T05:14:03.133Z,44
2017-09-04T05:27:02.657Z,44.4
2017-09-04T05:28:02.873Z,43.7
2017-09-04T05:29:03.108Z,43.5
2017-09-04T05:30:03.274Z,43.3
2017-09-04T05:31:03.427Z,43.3
2017-09-04T05:32:03.195Z,43.2
2017-09-04T05:33:03.488Z,43.3
2017-09-04T05:34:02.490Z,43.2
2017-09-04T05:35:02.361Z,43.2
2017-09-04T05:36:02.911Z,43.3
2017-09-04T05:37:02.861Z,43.1
2017-09-04T05:38:03.350Z,43.3
2017-09-04T05:39:02.959Z,43
2017-09-04T05:40:02.881Z,43.3
2017-09-04T05:41:02.299Z,43.3
2017-09-04T05:42:03.370Z,43.1
2017-09-04T05:43:02.958Z,43.1
2017-09-04T05:44:03.292Z,43.1
2017-09-04T05:45:02.896Z,43.1
2017-09-04T05:46:03.627Z,43.3
2017-09-04T05:47:03.554Z,43.3
2017-09-04T05:48:03.105Z,43.4
2017-09-04T05:49:02.813Z,43.2
2017-09-04T05:50:02.868Z,43.3
2017-09-04T05:51:02.791Z,43.4
2017-09-04T05:52:02.924Z,43.3
2017-09-04T05:53:02.749Z,43.2
2017-09-04T05:54:02.773Z,43.3
2017-09-04T05:55:02.579Z,43.3
2017-09-04T05:56:02.609Z,43.4
2017-09-04T05:57:02.551Z,43.3
2017-09-04T05:58:02.641Z,43.4
2017-09-04T05:59:02.855Z,43.3
2017-09-04T06:00:02.683Z,43.4
2017-09-04T06:01:04.027Z,43.2
2017-09-04T06:02:03.841Z,42.8
2017-09-04T06:03:03.961Z,43.3
2017-09-04T06:04:04.119Z,42.9
2017-09-04T06:05:03.693Z,43.3
2017-09-04T06:06:03.288Z,43.4
2017-09-04T06:07:03.090Z,43.4
2017-09-04T06:08:04.155Z,43.2
2017-09-04T06:09:04.392Z,43.2
2017-09-04T06:10:03.139Z,43.3
2017-09-04T06:11:03.779Z,43.2
2017-09-04T06:12:03.562Z,43.3
2017-09-04T06:13:03.849Z,43.3
2017-09-04T06:14:03.440Z,43.3
2017-09-04T06:15:03.416Z,43.3
2017-09-04T06:16:04.345Z,43.3
2017-09-04T06:17:03.491Z,43.3
2017-09-04T06:18:02.902Z,43.2
2017-09-04T06:19:03.411Z,43.4
2017-09-04T06:20:03.788Z,43.4
2017-09-04T06:21:03.700Z,43.4
2017-09-04T06:22:04.856Z,43.3
2017-09-04T06:23:03.675Z,43.2
2017-09-04T06:24:03.559Z,43.4
2017-09-04T06:25:03.759Z,43.3
2017-09-04T06:26:03.736Z,43.4
2017-09-04T06:27:03.129Z,43.4
2017-09-04T06:28:03.954Z,43.4
2017-09-04T06:29:03.976Z,43.5
2017-09-04T06:30:03.768Z,43.6
2017-09-04T06:31:03.369Z,43.5
2017-09-04T06:32:03.210Z,43.5
2017-09-04T06:33:03.988Z,43.6
2017-09-04T06:34:03.165Z,43.6
2017-09-04T06:35:03.854Z,43.5
2017-09-04T06:36:03.528Z,43.6
2017-09-04T06:37:03.741Z,43.7
2017-09-04T06:38:03.560Z,43.7
2017-09-04T06:39:03.394Z,43.6
2017-09-04T06:40:03.314Z,43.7
2017-09-04T06:41:03.329Z,43.6
2017-09-04T06:42:03.936Z,43.7
2017-09-04T06:43:04.071Z,43.6
2017-09-04T06:44:03.587Z,43.7
2017-09-04T06:45:02.871Z,43.7
2017-09-04T06:46:25.071Z,43.7
2017-09-04T06:46:58.891Z,43.8
2017-09-04T06:47:03.495Z,43.9
2017-09-04T06:48:04.472Z,43.7
2017-09-04T06:49:03.206Z,43.7
2017-09-04T06:50:03.638Z,43.7
2017-09-04T06:51:03.322Z,43.8
2017-09-04T06:52:35.803Z,43.7
2017-09-04T06:53:03.552Z,43.8
2017-09-04T06:54:03.325Z,43.8
2017-09-04T06:55:03.649Z,43.8
2017-09-04T06:56:03.387Z,43.8
2017-09-04T06:57:04.262Z,43.8
2017-09-04T06:58:03.956Z,43.5
2017-09-04T06:59:03.574Z,44
2017-09-04T07:00:03.672Z,43.8
2017-09-04T07:01:02.738Z,44
2017-09-04T07:02:02.704Z,44
2017-09-04T07:03:02.565Z,44
2017-09-04T07:04:02.799Z,43.9
2017-09-04T07:05:02.917Z,44.6
2017-09-04T07:06:02.473Z,44.9
2017-09-04T07:07:02.818Z,45.3
2017-09-04T07:08:02.702Z,44.7
2017-09-04T07:09:02.786Z,45.6
2017-09-04T07:10:02.498Z,44.9
2017-09-04T07:11:02.755Z,44.9
2017-09-04T07:12:02.249Z,44.7
2017-09-04T07:13:03.228Z,44.6
2017-09-04T07:14:03.221Z,44.6
2017-09-04T07:15:02.654Z,44.6
2017-09-04T07:16:02.044Z,44.6
2017-09-04T07:17:02.915Z,44.5
2017-09-04T07:18:02.596Z,44.5
2017-09-04T07:19:02.783Z,44.4
2017-09-04T07:20:03.339Z,44.3
2017-09-04T07:21:03.288Z,44.4
2017-09-04T07:22:03.234Z,44.5
2017-09-04T07:23:02.150Z,44.4
2017-09-04T07:24:03.050Z,44.5
2017-09-04T07:25:02.796Z,44.5
2017-09-04T07:26:02.659Z,44.4
2017-09-04T07:27:02.636Z,44.4
2017-09-04T07:28:03.041Z,44.4
2017-09-04T07:29:02.419Z,44.4
2017-09-04T07:30:02.329Z,44.5
2017-09-04T07:31:03.240Z,44.4
2017-09-04T07:32:03.071Z,44.5
2017-09-04T07:33:03.215Z,44.5
2017-09-04T07:34:02.546Z,44.5
2017-09-04T07:35:02.567Z,44.5
2017-09-04T07:36:02.513Z,44.6
2017-09-04T07:37:01.909Z,44.6
2017-09-04T07:38:03.094Z,44.6
2017-09-04T07:39:03.510Z,44.6
2017-09-04T07:40:02.339Z,44.6
2017-09-04T07:41:02.393Z,44.7
2017-09-04T07:42:03.354Z,44.6
2017-09-04T07:43:03.340Z,44.6
2017-09-04T07:44:02.821Z,44.6
2017-09-04T07:45:02.317Z,44.7
2017-09-04T07:46:02.391Z,44.7
2017-09-04T07:47:02.851Z,44.8
2017-09-04T07:48:02.503Z,44.7
2017-09-04T07:49:02.961Z,44.8
2017-09-04T07:50:02.618Z,44.9
2017-09-04T07:51:02.298Z,44.8
2017-09-04T07:52:03.182Z,44.9
2017-09-04T07:53:03.029Z,45
2017-09-04T07:54:02.073Z,44.9
2017-09-04T07:55:02.750Z,44.9
2017-09-04T07:56:02.400Z,45
2017-09-04T07:57:03.251Z,45
2017-09-04T07:58:03.039Z,45
2017-09-04T07:59:02.310Z,45
2017-09-04T08:00:02.811Z,45
2017-09-04T08:01:03.373Z,45.1
2017-09-04T08:02:03.001Z,45.1
2017-09-04T08:03:03.678Z,45.1
2017-09-04T08:04:03.677Z,45.1
2017-09-04T08:05:03.581Z,45.2
2017-09-04T08:06:03.190Z,45.2
2017-09-04T08:07:03.662Z,45.2
2017-09-04T08:08:02.960Z,45.2
2017-09-04T08:09:04.043Z,45.2
2017-09-04T08:10:02.908Z,45.2
2017-09-04T08:11:03.771Z,45.2
2017-09-04T08:12:03.237Z,45.2
2017-09-04T08:13:02.957Z,45.3
2017-09-04T08:14:03.909Z,45.3
2017-09-04T08:15:03.142Z,45.3
2017-09-04T08:16:02.776Z,45.3
2017-09-04T08:17:03.632Z,45.3
2017-09-04T08:18:03.335Z,45.3
2017-09-04T08:19:02.798Z,45.4
2017-09-04T08:20:04.408Z,45.4
2017-09-04T08:21:03.252Z,45.4
2017-09-04T08:22:03.684Z,45.4
2017-09-04T08:23:03.923Z,45.4
2017-09-04T08:24:03.594Z,45.4
2017-09-04T08:25:03.041Z,45.4
2017-09-04T08:26:03.513Z,45.5
2017-09-04T08:27:02.777Z,45.5
2017-09-04T08:28:03.862Z,45.5
2017-09-04T08:29:03.755Z,45.5
2017-09-04T08:30:03.593Z,45.6
2017-09-04T08:31:03.749Z,45.5
2017-09-04T08:32:03.591Z,45.6
2017-09-04T08:33:03.212Z,45.6
2017-09-04T08:34:02.903Z,45.6
2017-09-04T08:35:02.964Z,45.6
2017-09-04T08:36:03.029Z,45.6
2017-09-04T08:37:03.503Z,45.6
2017-09-04T08:38:03.389Z,45.6
2017-09-04T08:39:03.206Z,45.6
2017-09-04T08:40:03.948Z,45.6
2017-09-04T08:41:03.685Z,45.6
2017-09-04T08:42:03.126Z,45.6
2017-09-04T08:43:03.760Z,45.6
2017-09-04T08:44:03.023Z,45.6
2017-09-04T08:45:03.281Z,45.6
2017-09-04T08:46:02.737Z,45.6
2017-09-04T08:47:03.546Z,45.7
2017-09-04T08:48:04.096Z,45.6
2017-09-04T08:49:03.523Z,45.7
2017-09-04T08:50:03.379Z,45.7
2017-09-04T08:51:03.426Z,45.7
2017-09-04T08:52:03.282Z,45.7
2017-09-04T08:53:03.486Z,45.7
2017-09-04T08:54:03.139Z,45.7
2017-09-04T08:55:03.381Z,45.6
2017-09-04T08:56:02.996Z,45.7
2017-09-04T08:57:03.033Z,45.7
2017-09-04T08:58:03.118Z,45.7
2017-09-04T08:59:04.064Z,45.7
2017-09-04T09:00:03.492Z,45.7
2017-09-04T09:01:02.531Z,45.6
2017-09-04T09:02:02.768Z,45.6
2017-09-04T09:03:02.277Z,45.6
2017-09-04T09:04:02.921Z,45.6
2017-09-04T09:05:02.385Z,45.5
2017-09-04T09:06:03.028Z,45.5
2017-09-04T09:07:03.272Z,45.5
2017-09-04T09:08:03.204Z,45.5
2017-09-04T09:09:02.242Z,45.5
2017-09-04T09:10:02.727Z,45.5
2017-09-04T09:11:02.442Z,45.5
2017-09-04T09:12:03.235Z,45.5
2017-09-04T09:13:03.359Z,45.5
2017-09-04T09:14:02.845Z,45.5
2017-09-04T09:15:02.524Z,45.5
2017-09-04T09:16:03.194Z,45.5
2017-09-04T09:17:03.459Z,45.5
2017-09-04T09:18:03.121Z,45.5
2017-09-04T09:19:03.272Z,45.5
2017-09-04T09:20:02.725Z,45.5
2017-09-04T09:21:02.672Z,45.4
2017-09-04T09:22:03.578Z,45.4
2017-09-04T09:23:02.828Z,45.5
2017-09-04T09:24:02.285Z,45.5
2017-09-04T09:25:02.916Z,45.5
2017-09-04T09:26:02.363Z,45.5
2017-09-04T09:27:02.686Z,45.5
2017-09-04T09:28:02.509Z,45.5
2017-09-04T09:29:02.329Z,45.6
2017-09-04T09:30:02.965Z,45.6
2017-09-04T09:31:03.486Z,45.5
2017-09-04T09:32:02.885Z,45.5
2017-09-04T09:33:02.536Z,45.5
2017-09-04T09:34:02.375Z,45.5
2017-09-04T09:35:02.411Z,45.5
2017-09-04T09:36:03.072Z,45.4
2017-09-04T09:37:02.526Z,45.5
2017-09-04T09:38:02.960Z,45.4
2017-09-04T09:39:03.169Z,45.5
2017-09-04T09:40:03.230Z,45.4
2017-09-04T09:41:03.261Z,45.4
2017-09-04T09:42:02.692Z,45.4
2017-09-04T09:43:02.527Z,45.4
2017-09-04T09:44:02.559Z,45.4
2017-09-04T09:45:02.417Z,45.6
2017-09-04T09:46:02.521Z,45.7
2017-09-04T09:47:03.071Z,45.9
2017-09-04T09:48:02.532Z,46
2017-09-04T09:49:03.344Z,46.1
2017-09-04T09:50:02.767Z,46.1
2017-09-04T09:51:06.104Z,46.1
2017-09-04T09:52:03.080Z,46
2017-09-04T09:53:02.872Z,45.9
2017-09-04T09:54:06.705Z,46.1
2017-09-04T09:55:02.923Z,46.1
2017-09-04T09:56:02.934Z,46.1
2017-09-04T09:57:02.972Z,46
2017-09-04T09:58:03.091Z,46
2017-09-04T09:59:03.102Z,46
2017-09-04T10:00:02.907Z,46
2017-09-04T10:01:02.456Z,45.9
2017-09-04T10:02:02.289Z,45.9
2017-09-04T10:03:02.515Z,45.9
2017-09-04T10:04:03.292Z,45.9
2017-09-04T10:05:02.707Z,45.8
2017-09-04T10:06:02.357Z,45.8
2017-09-04T10:07:02.980Z,45.8
2017-09-04T10:08:02.390Z,45.8
2017-09-04T10:09:03.529Z,45.8
2017-09-04T10:10:02.573Z,45.9
2017-09-04T10:11:02.229Z,45.8
2017-09-04T10:12:03.052Z,45.7
2017-09-04T10:13:02.282Z,45.8
2017-09-04T10:14:02.914Z,45.8
2017-09-04T10:15:02.761Z,45.7
2017-09-04T10:16:02.988Z,45.7
2017-09-04T10:17:02.635Z,45.7
2017-09-04T10:18:02.539Z,45.7
2017-09-04T10:20:02.408Z,45.6
2017-09-04T10:21:02.853Z,45.5
2017-09-04T10:22:02.073Z,45.4
2017-09-04T10:23:02.747Z,45.4
2017-09-04T10:24:02.433Z,45.4
2017-09-04T10:25:03.200Z,45.3
2017-09-04T10:26:03.478Z,45.3
2017-09-04T10:27:02.718Z,45.3
2017-09-04T10:28:02.732Z,45.1
2017-09-04T10:29:02.168Z,45.2
2017-09-04T10:30:02.447Z,45
2017-09-04T10:31:03.112Z,45
2017-09-04T10:32:02.700Z,44.9
2017-09-04T10:33:02.357Z,45.1
2017-09-04T10:34:03.206Z,45
2017-09-04T10:35:03.060Z,44.9
2017-09-04T10:36:03.165Z,44.9
2017-09-04T10:37:02.844Z,44.9
2017-09-04T10:38:02.516Z,44.8
2017-09-04T10:39:03.355Z,44.9
2017-09-04T10:40:02.813Z,44.9
2017-09-04T10:41:02.251Z,44.7
2017-09-04T10:42:03.103Z,44.7
2017-09-04T10:43:02.768Z,44.8
2017-09-04T10:44:02.229Z,44.7
2017-09-04T10:45:02.682Z,44.7
2017-09-04T10:46:02.340Z,44.7
2017-09-04T10:47:02.647Z,44.8
2017-09-04T10:48:03.386Z,44.6
2017-09-04T10:49:03.021Z,44.8
2017-09-04T10:50:02.889Z,44.8
2017-09-04T10:51:02.214Z,44.7
2017-09-04T10:52:03.063Z,44.9
2017-09-04T10:53:02.279Z,44.8
2017-09-04T10:54:02.950Z,44.6
2017-09-04T10:55:02.661Z,44.6
2017-09-04T10:56:03.368Z,44.4
2017-09-04T10:57:03.069Z,44.4
2017-09-04T10:58:02.799Z,44.4
2017-09-04T10:59:02.568Z,44.2
2017-09-04T11:00:03.395Z,44.3
2017-09-04T11:01:03.078Z,44.4
2017-09-04T11:02:02.730Z,44.4
2017-09-04T11:03:02.768Z,44.4
2017-09-04T11:04:03.450Z,44.4
2017-09-04T11:05:03.301Z,44.3
2017-09-04T11:06:02.574Z,44.4
2017-09-04T11:07:02.412Z,44.2
2017-09-04T11:08:02.472Z,44.2
2017-09-04T11:09:03.089Z,44.4
2017-09-04T11:10:03.066Z,44.1
2017-09-04T11:11:02.564Z,44.2
2017-09-04T11:12:03.024Z,44.3
2017-09-04T11:13:02.465Z,44.1
2017-09-04T11:14:02.943Z,44.2
2017-09-04T11:15:02.564Z,44.3
2017-09-04T11:16:03.626Z,44.2
2017-09-04T11:17:03.275Z,44.2
2017-09-04T11:18:02.680Z,44
2017-09-04T11:19:02.731Z,43.9
2017-09-04T11:20:02.828Z,44
2017-09-04T11:21:03.121Z,43.9
2017-09-04T11:22:03.180Z,43.8
2017-09-04T11:23:02.842Z,43.8
2017-09-04T11:24:02.676Z,43.9
2017-09-04T11:25:02.468Z,43.9
2017-09-04T11:26:03.657Z,43.9
2017-09-04T11:27:02.815Z,44
2017-09-04T11:28:02.675Z,44
2017-09-04T11:29:02.478Z,43.9
2017-09-04T11:30:03.137Z,43.7
2017-09-04T11:31:02.801Z,43.8
2017-09-04T11:32:02.720Z,43.9
2017-09-04T11:33:02.577Z,43.7
2017-09-04T11:34:03.395Z,43.8
2017-09-04T11:35:02.490Z,43.5
2017-09-04T11:36:03.316Z,43.6
2017-09-04T11:37:02.364Z,43.5
2017-09-04T11:38:03.180Z,43.6
2017-09-04T11:39:03.226Z,43.2
2017-09-04T11:40:02.829Z,43.6
2017-09-04T11:41:02.841Z,43.6
2017-09-04T11:42:03.963Z,43.9
2017-09-04T11:43:02.387Z,44
2017-09-04T11:44:03.424Z,43.8
2017-09-04T11:45:03.445Z,43.9
2017-09-04T11:46:03.037Z,43.5
2017-09-04T11:47:03.113Z,43.6
2017-09-04T11:48:02.711Z,43.4
2017-09-04T11:49:03.130Z,43.1
2017-09-04T11:50:03.131Z,43.6
2017-09-04T11:51:02.967Z,43.3
2017-09-04T11:52:02.782Z,43.6
2017-09-04T11:53:03.301Z,43.6
2017-09-04T11:54:03.529Z,43.5
2017-09-04T11:55:03.236Z,43.7
2017-09-04T11:56:02.841Z,43.4
2017-09-04T11:57:02.844Z,43.5
2017-09-04T11:58:02.481Z,43.4
2017-09-04T11:59:02.700Z,43.6
2017-09-04T12:00:02.704Z,43.6
2017-09-04T12:01:02.603Z,43.4
2017-09-04T12:02:02.215Z,43.3
2017-09-04T12:03:03.222Z,43.5
2017-09-04T12:04:02.931Z,43.4
2017-09-04T12:05:06.842Z,43.4
2017-09-04T12:06:03.206Z,43.5
2017-09-04T12:07:02.852Z,43.3
2017-09-04T12:08:02.860Z,43.5
2017-09-04T12:09:02.331Z,43.5
2017-09-04T12:10:03.144Z,43.7
2017-09-04T12:11:02.747Z,43.6
2017-09-04T12:12:02.535Z,43.5
2017-09-04T12:13:03.134Z,43.5
2017-09-04T12:14:02.945Z,43.6
2017-09-04T12:15:09.491Z,43.7
2017-09-04T12:16:06.192Z,43.5
2017-09-04T12:17:03.053Z,43.7
2017-09-04T12:18:03.949Z,43.6
2017-09-04T12:19:06.993Z,43.7
2017-09-04T12:20:03.096Z,43.6
2017-09-04T12:21:03.369Z,43.9
2017-09-04T12:22:03.363Z,43.7
2017-09-04T12:23:05.992Z,43.7
2017-09-04T12:24:02.633Z,43.7
2017-09-04T12:25:04.165Z,43.6
2017-09-04T12:26:03.019Z,43.6
2017-09-04T12:27:03.270Z,43.5
2017-09-04T12:28:03.178Z,43.6
2017-09-04T12:29:03.649Z,43.5
2017-09-04T12:30:02.435Z,43.6
2017-09-04T12:31:03.155Z,43.3
2017-09-04T12:32:02.900Z,43.7
2017-09-04T12:33:01.889Z,43.6
2017-09-04T12:34:02.323Z,43.6
2017-09-04T12:35:02.728Z,43.4
2017-09-04T12:36:03.110Z,43.7
2017-09-04T12:37:02.718Z,43.7
2017-09-04T12:39:02.673Z,43.7
2017-09-04T12:40:02.070Z,43.8
2017-09-04T12:41:02.292Z,43.4
2017-09-04T12:42:02.751Z,43.6
2017-09-04T12:43:03.474Z,43.7
2017-09-04T12:44:02.919Z,43.4
2017-09-04T12:45:02.558Z,43.5
2017-09-04T12:46:03.191Z,43.5
2017-09-04T12:47:02.987Z,43.3
2017-09-04T12:48:02.806Z,43.7
2017-09-04T12:49:03.245Z,43.8
2017-09-04T12:50:02.817Z,43.7
2017-09-04T12:51:02.429Z,43.7
2017-09-04T12:52:03.011Z,43.6
2017-09-04T12:53:02.621Z,43.7
2017-09-04T12:54:02.401Z,43.8
2017-09-04T12:55:03.617Z,43.7
2017-09-04T12:56:03.208Z,43.8
2017-09-04T12:57:02.680Z,43.7
2017-09-04T12:58:02.569Z,43.9
2017-09-04T12:59:02.507Z,43.7
2017-09-04T13:00:03.887Z,43.7
2017-09-04T13:01:03.799Z,43.6
2017-09-04T13:02:04.278Z,43.6
2017-09-04T13:03:03.731Z,43.7
2017-09-04T13:04:03.143Z,43.7
2017-09-04T13:05:03.462Z,43.7
2017-09-04T13:06:03.332Z,43.7
2017-09-04T13:07:02.840Z,43.4
2017-09-04T13:08:03.339Z,43.3
2017-09-04T13:09:04.032Z,43.5
2017-09-04T13:10:03.354Z,43.6
2017-09-04T13:11:04.188Z,43.3
2017-09-04T13:12:04.291Z,43.4
2017-09-04T13:13:03.815Z,43.4
2017-09-04T13:14:04.150Z,43.2
2017-09-04T13:15:03.870Z,43.1
2017-09-04T13:16:04.354Z,43.3
2017-09-04T13:17:03.564Z,43.3
2017-09-04T13:18:03.467Z,43.1
2017-09-04T13:19:03.556Z,43
2017-09-04T13:20:03.024Z,43
2017-09-04T13:21:03.229Z,42.8
2017-09-04T13:22:03.489Z,43.1
2017-09-04T13:23:04.125Z,43
2017-09-04T13:24:03.695Z,42.9
2017-09-04T13:25:03.233Z,42.7
2017-09-04T13:26:04.265Z,42.4
2017-09-04T13:27:04.293Z,42.5
2017-09-04T13:28:03.518Z,42.7
2017-09-04T13:29:03.740Z,42.6
2017-09-04T13:30:03.532Z,42.4
2017-09-04T13:31:03.747Z,42.4
2017-09-04T13:37:03.938Z,42.4
2017-09-04T13:38:03.755Z,42.3
2017-09-04T13:39:03.883Z,42
2017-09-04T13:40:03.125Z,41.8
2017-09-04T13:41:04.358Z,42